createdAt,value
2018-09-24T00:00:59.094Z,100390.78
2018-09-24T00:03:27.782Z,100392.91
2018-09-24T00:05:56.486Z,100402.75
2018-09-24T00:08:25.185Z,100420.27
2018-09-24T00:10:53.758Z,100425.30
2018-09-24T00:13:22.286Z,100425.33
2018-09-24T00:15:51.040Z,100431.41
2018-09-24T00:18:19.509Z,100435.41
2018-09-24T00:20:48.193Z,100428.76
2018-09-24T00:23:16.689Z,100440.20
2018-09-24T00:25:45.548Z,100433.31
2018-09-24T00:28:14.337Z,100453.77
2018-09-24T00:30:43.012Z,100448.45
2018-09-24T00:33:11.443Z,100458.80
2018-09-24T00:35:40.275Z,100459.58
2018-09-24T00:38:08.792Z,100470.46
2018-09-24T00:40:37.979Z,100478.41
2018-09-24T00:43:06.681Z,100478.41
2018-09-24T00:45:35.274Z,100489.55
2018-09-24T00:48:03.917Z,100495.10
2018-09-24T00:50:33.051Z,100499.08
2018-09-24T00:53:01.612Z,100502.56
2018-09-24T00:55:30.209Z,100506.55
2018-09-24T00:57:58.825Z,100510.50
2018-09-24T01:00:27.359Z,100512.88
2018-09-24T01:02:55.826Z,100512.09
2018-09-24T01:05:24.405Z,100526.41
2018-09-24T01:07:52.925Z,100530.69
2018-09-24T01:10:21.903Z,100535.16
2018-09-24T01:12:50.814Z,100540.45
2018-09-24T01:15:19.351Z,100544.98
2018-09-24T01:17:47.959Z,100555.31
2018-09-24T01:20:16.851Z,100552.13
2018-09-24T01:22:45.411Z,100568.30
2018-09-24T01:25:14.033Z,100576.53
2018-09-24T01:27:42.595Z,100579.73
2018-09-24T01:30:11.396Z,100585.81
2018-09-24T01:32:39.876Z,100587.67
2018-09-24T01:35:08.355Z,100578.39
2018-09-24T01:37:36.939Z,100595.34
2018-09-24T01:40:05.527Z,100593.48
2018-09-24T01:42:34.320Z,100601.98
2018-09-24T01:45:03.070Z,100608.89
2018-09-24T01:47:32.516Z,100612.86
2018-09-24T01:50:00.954Z,100612.86
2018-09-24T01:52:29.672Z,100609.93
2018-09-24T01:54:58.275Z,100623.73
2018-09-24T01:57:27.235Z,100623.72
2018-09-24T01:59:56.893Z,100627.43
2018-09-24T02:02:25.480Z,100631.67
2018-09-24T02:04:54.633Z,100635.38
2018-09-24T02:07:23.186Z,100644.92
2018-09-24T02:09:51.801Z,100643.59
2018-09-24T02:12:20.253Z,100644.65
2018-09-24T02:14:48.777Z,100648.36
2018-09-24T02:17:21.323Z,100652.31
2018-09-24T02:19:50.508Z,100656.30
2018-09-24T02:22:26.326Z,100671.64
2018-09-24T02:24:55.742Z,100670.87
2018-09-24T02:27:24.511Z,100678.83
2018-09-24T02:29:52.991Z,100683.36
2018-09-24T02:32:21.925Z,100682.27
2018-09-24T02:34:52.224Z,100676.73
2018-09-24T02:37:21.177Z,100691.83
2018-09-24T02:39:49.931Z,100696.88
2018-09-24T02:42:18.691Z,100700.85
2018-09-24T02:44:49.289Z,100706.97
2018-09-24T02:47:18.209Z,100709.62
2018-09-24T02:49:46.949Z,100713.34
2018-09-24T02:52:16.099Z,100714.10
2018-09-24T02:54:44.659Z,100725.80
2018-09-24T02:57:13.348Z,100725.53
2018-09-24T02:59:45.455Z,100727.91
2018-09-24T03:02:13.976Z,100729.22
2018-09-24T03:04:42.729Z,100735.08
2018-09-24T03:07:11.263Z,100733.78
2018-09-24T03:09:39.746Z,100737.73
2018-09-24T03:12:08.298Z,100735.88
2018-09-24T03:14:36.824Z,100739.08
2018-09-24T03:17:05.267Z,100745.69
2018-09-24T03:19:33.747Z,100741.47
2018-09-24T03:22:02.455Z,100753.94
2018-09-24T03:24:31.148Z,100761.64
2018-09-24T03:26:59.706Z,100768.81
2018-09-24T03:29:28.277Z,100773.33
2018-09-24T03:31:56.794Z,100778.36
2018-09-24T03:34:25.569Z,100785.50
2018-09-24T03:36:53.977Z,100785.79
2018-09-24T03:39:22.543Z,100791.37
2018-09-24T03:41:51.149Z,100790.33
2018-09-24T03:44:19.583Z,100785.55
2018-09-24T03:46:48.135Z,100789.52
2018-09-24T03:49:16.644Z,100791.66
2018-09-24T03:51:45.098Z,100789.48
2018-09-24T03:54:14.112Z,100795.59
2018-09-24T03:56:42.638Z,100804.05
2018-09-24T03:59:11.152Z,100799.55
2018-09-24T04:01:39.600Z,100796.08
2018-09-24T04:04:13.325Z,100793.42
2018-09-24T04:06:47.116Z,100800.59
2018-09-24T04:09:21.114Z,100804.55
2018-09-24T04:11:55.016Z,100814.38
2018-09-24T04:14:28.800Z,100819.42
2018-09-24T04:17:02.787Z,100824.17
2018-09-24T04:19:36.867Z,100830.56
2018-09-24T04:22:14.132Z,100827.91
2018-09-24T04:24:47.919Z,100838.22
2018-09-24T04:27:21.761Z,100847.50
2018-09-24T04:29:55.561Z,100845.39
2018-09-24T04:32:29.474Z,100853.31
2018-09-24T04:35:03.418Z,100858.64
2018-09-24T04:37:37.214Z,100846.97
2018-09-24T04:40:11.328Z,100847.52
2018-09-24T04:42:45.093Z,100857.59
2018-09-24T04:45:19.164Z,100857.32
2018-09-24T04:47:52.973Z,100866.59
2018-09-24T04:50:26.885Z,100869.80
2018-09-24T04:53:00.869Z,100874.02
2018-09-24T04:55:34.671Z,100873.48
2018-09-24T04:58:08.582Z,100872.46
2018-09-24T05:00:42.488Z,100880.69
2018-09-24T05:03:16.312Z,100877.75
2018-09-24T05:06:03.498Z,100879.04
2018-09-24T05:08:37.323Z,100883.27
2018-09-24T05:11:11.439Z,100898.37
2018-09-24T05:13:45.204Z,100894.94
2018-09-24T05:16:19.151Z,100906.30
2018-09-24T05:18:52.825Z,100911.34
2018-09-24T05:21:26.610Z,100917.70
2018-09-24T05:24:00.425Z,100909.98
2018-09-24T05:26:34.372Z,100916.05
2018-09-24T05:29:08.116Z,100917.92
2018-09-24T05:31:42.139Z,100912.62
2018-09-24T05:34:16.233Z,100920.02
2018-09-24T05:36:49.955Z,100921.34
2018-09-24T05:39:23.707Z,100927.72
2018-09-24T05:41:57.625Z,100928.52
2018-09-24T05:44:31.755Z,100929.84
2018-09-24T05:47:05.987Z,100937.00
2018-09-24T05:49:39.954Z,100938.09
2018-09-24T05:52:13.590Z,100940.49
2018-09-24T05:54:47.464Z,100951.11
2018-09-24T05:57:21.301Z,100957.20
2018-09-24T05:59:54.981Z,100962.78
2018-09-24T06:02:28.882Z,100976.59
2018-09-24T06:05:03.239Z,100974.22
2018-09-24T06:07:37.085Z,100976.09
2018-09-24T06:10:11.051Z,100981.12
2018-09-24T06:12:44.843Z,100986.17
2018-09-24T06:15:18.727Z,100986.47
2018-09-24T06:17:56.126Z,100984.88
2018-09-24T06:20:31.291Z,100994.16
2018-09-24T06:23:05.915Z,100986.51
2018-09-24T06:25:39.760Z,100994.80
2018-09-24T06:28:13.754Z,101004.11
2018-09-24T06:30:48.041Z,101001.48
2018-09-24T06:33:21.883Z,101010.23
2018-09-24T06:35:55.743Z,101017.50
2018-09-24T06:38:29.651Z,101017.53
2018-09-24T06:41:03.465Z,101011.42
2018-09-24T06:43:37.659Z,101016.23
2018-09-24T06:46:12.145Z,101024.00
2018-09-24T06:48:45.883Z,101032.84
2018-09-24T06:51:19.818Z,101031.84
2018-09-24T06:53:53.514Z,101035.31
2018-09-24T06:56:27.264Z,101041.99
2018-09-24T06:59:01.127Z,101051.59
2018-09-24T07:01:34.931Z,101050.81
2018-09-24T07:04:08.783Z,101064.95
2018-09-24T07:06:47.559Z,101047.47
2018-09-24T07:09:21.821Z,101064.25
2018-09-24T07:11:55.569Z,101069.08
2018-09-24T07:14:29.281Z,101076.78
2018-09-24T07:17:03.198Z,101084.73
2018-09-24T07:19:37.019Z,101092.70
2018-09-24T07:22:10.699Z,101100.13
2018-09-24T07:24:44.615Z,101102.23
2018-09-24T07:27:19.134Z,101120.84
2018-09-24T07:29:52.930Z,101121.64
2018-09-24T07:32:27.207Z,101119.25
2018-09-24T07:35:00.990Z,101126.20
2018-09-24T07:37:35.429Z,101128.08
2018-09-24T07:40:09.185Z,101139.80
2018-09-24T07:42:43.016Z,101141.97
2018-09-24T07:45:16.783Z,101150.23
2018-09-24T07:47:51.099Z,101144.09
2018-09-24T07:50:24.938Z,101163.00
2018-09-24T07:52:59.539Z,101160.89
2018-09-24T07:55:33.473Z,101170.77
2018-09-24T07:58:07.762Z,101166.06
2018-09-24T08:00:41.783Z,101170.08
2018-09-24T08:03:15.675Z,101168.51
2018-09-24T08:05:49.504Z,101175.41
2018-09-24T08:08:23.251Z,101185.81
2018-09-24T08:10:57.157Z,101189.81
2018-09-24T08:13:31.159Z,101192.18
2018-09-24T08:16:05.139Z,101198.53
2018-09-24T08:18:39.068Z,101202.77
2018-09-24T08:21:13.050Z,101213.70
2018-09-24T08:23:46.912Z,101212.64
2018-09-24T08:26:20.701Z,101216.42
2018-09-24T08:28:54.417Z,101212.97
2018-09-24T08:31:28.721Z,101212.18
2018-09-24T08:34:02.383Z,101215.63
2018-09-24T08:36:36.334Z,101222.53
2018-09-24T08:39:12.183Z,101220.91
2018-09-24T08:41:46.346Z,101227.54
2018-09-24T08:44:20.311Z,101233.39
2018-09-24T08:46:55.298Z,101236.81
2018-09-24T08:49:29.070Z,101248.55
2018-09-24T08:52:02.778Z,101246.69
2018-09-24T08:54:37.701Z,101242.98
2018-09-24T08:57:12.317Z,101249.34
2018-09-24T08:59:46.076Z,101254.94
2018-09-24T09:02:20.388Z,101251.73
2018-09-24T09:04:54.083Z,101253.34
2018-09-24T09:07:27.860Z,101257.63
2018-09-24T09:10:01.839Z,101251.05
2018-09-24T09:12:35.732Z,101261.48
2018-09-24T09:15:09.693Z,101273.20
2018-09-24T09:17:44.059Z,101262.27
2018-09-24T09:20:19.523Z,101268.94
2018-09-24T09:22:53.267Z,101270.58
2018-09-24T09:25:32.547Z,101270.34
2018-09-24T09:28:06.481Z,101274.63
2018-09-24T09:30:40.389Z,101287.14
2018-09-24T09:33:14.036Z,101280.11
2018-09-24T09:35:48.017Z,101280.51
2018-09-24T09:38:21.943Z,101280.75
2018-09-24T09:40:57.710Z,101274.19
2018-09-24T09:43:32.774Z,101274.27
2018-09-24T09:46:06.629Z,101271.63
2018-09-24T09:48:40.453Z,101287.69
2018-09-24T09:51:14.315Z,101282.10
2018-09-24T09:53:48.082Z,101279.69
2018-09-24T09:56:21.842Z,101286.59
2018-09-24T09:58:55.721Z,101299.44
2018-09-24T10:01:30.226Z,101294.86
2018-09-24T10:04:04.067Z,101308.73
2018-09-24T10:06:38.528Z,101294.41
2018-09-24T10:09:13.440Z,101294.84
2018-09-24T10:11:47.394Z,101306.49
2018-09-24T10:14:21.086Z,101300.94
2018-09-24T10:16:54.827Z,101278.23
2018-09-24T10:19:28.652Z,101304.38
2018-09-24T10:22:02.330Z,101306.03
2018-09-24T10:24:36.157Z,101320.28
2018-09-24T10:27:10.023Z,101308.96
2018-09-24T10:29:43.821Z,101315.14
2018-09-24T10:32:17.604Z,101320.52
2018-09-24T10:34:51.332Z,101317.34
2018-09-24T10:37:25.184Z,101319.72
2018-09-24T10:39:58.949Z,101318.08
2018-09-24T10:42:32.804Z,101304.23
2018-09-24T10:45:09.642Z,101315.78
2018-09-24T10:47:43.619Z,101317.36
2018-09-24T10:50:17.679Z,101324.34
2018-09-24T10:52:51.802Z,101332.48
2018-09-24T10:55:25.477Z,101317.86
2018-09-24T10:57:59.697Z,101327.22
2018-09-24T11:00:33.502Z,101326.19
2018-09-24T11:03:07.493Z,101332.37
2018-09-24T11:05:41.117Z,101331.06
2018-09-24T11:08:20.720Z,101325.72
2018-09-24T11:10:55.760Z,101327.56
2018-09-24T11:13:29.494Z,101341.98
2018-09-24T11:16:04.174Z,101352.42
2018-09-24T11:18:38.069Z,101348.42
2018-09-24T11:21:11.663Z,101341.75
2018-09-24T11:23:45.474Z,101340.92
2018-09-24T11:28:53.898Z,101350.22
2018-09-24T11:31:27.707Z,101341.70
2018-09-24T11:34:01.454Z,101340.39
2018-09-24T11:36:35.370Z,101356.68
2018-09-24T11:39:09.429Z,101367.93
2018-09-24T11:41:43.399Z,101377.01
2018-09-24T11:44:17.411Z,101367.59
2018-09-24T11:46:52.391Z,101367.91
2018-09-24T11:49:26.276Z,101366.06
2018-09-24T11:52:00.193Z,101370.34
2018-09-24T11:54:34.111Z,101391.09
2018-09-24T11:57:08.278Z,101378.17
2018-09-24T11:59:42.223Z,101377.48
2018-09-24T12:02:16.007Z,101388.66
2018-09-24T12:04:50.431Z,101385.47
2018-09-24T12:07:24.386Z,101383.00
2018-09-24T12:09:58.241Z,101372.59
2018-09-24T12:12:32.164Z,101377.95
2018-09-24T12:15:06.064Z,101382.63
2018-09-24T12:17:39.948Z,101378.89
2018-09-24T12:20:14.083Z,101369.78
2018-09-24T12:22:47.690Z,101372.02
2018-09-24T12:25:26.863Z,101370.22
2018-09-24T12:28:01.116Z,101375.50
2018-09-24T12:30:34.808Z,101370.81
2018-09-24T12:33:08.606Z,101377.09
2018-09-24T12:38:33.252Z,101369.19
2018-09-24T12:41:07.162Z,101373.00
2018-09-24T12:43:40.894Z,101362.01
2018-09-24T12:46:14.643Z,101372.02
2018-09-24T12:48:48.700Z,101366.87
2018-09-24T12:51:22.450Z,101370.38
2018-09-24T12:53:56.064Z,101366.75
2018-09-24T12:56:30.500Z,101365.22
2018-09-24T12:59:04.592Z,101372.03
2018-09-24T13:01:38.272Z,101379.98
2018-09-24T13:04:12.000Z,101372.08
2018-09-24T13:06:45.844Z,101382.70
2018-09-24T13:09:20.228Z,101377.02
2018-09-24T13:11:56.769Z,101374.63
2018-09-24T13:14:30.666Z,101378.63
2018-09-24T13:17:04.721Z,101386.17
2018-09-24T13:19:38.289Z,101400.80
2018-09-24T13:22:12.509Z,101411.22
2018-09-24T13:24:46.235Z,101423.09
2018-09-24T13:27:19.942Z,101440.92
2018-09-24T13:29:54.020Z,101434.50
2018-09-24T13:32:27.828Z,101443.41
2018-09-24T13:35:01.735Z,101441.30
2018-09-24T13:37:35.646Z,101459.43
2018-09-24T13:40:09.641Z,101447.97
2018-09-24T13:42:43.156Z,101446.34
2018-09-24T13:45:16.919Z,101440.16
2018-09-24T13:47:50.766Z,101455.26
2018-09-24T13:50:25.018Z,101438.25
2018-09-24T13:52:58.836Z,101447.23
2018-09-24T13:55:33.522Z,101450.63
2018-09-24T13:58:07.537Z,101448.89
2018-09-24T14:00:41.333Z,101439.72
2018-09-24T14:03:15.085Z,101441.77
2018-09-24T14:05:48.904Z,101445.41
2018-09-24T14:08:23.242Z,101449.16
2018-09-24T14:10:57.968Z,101448.73
2018-09-24T14:13:32.833Z,101446.13
2018-09-24T14:16:07.820Z,101446.25
2018-09-24T14:18:41.933Z,101445.88
2018-09-24T14:21:16.749Z,101456.50
2018-09-24T14:23:50.475Z,101450.50
2018-09-24T14:26:24.282Z,101457.28
2018-09-24T14:28:58.145Z,101458.91
2018-09-24T14:31:32.028Z,101450.92
2018-09-24T14:34:05.904Z,101449.60
2018-09-24T14:36:39.636Z,101448.27
2018-09-24T14:39:14.672Z,101452.81
2018-09-24T14:41:48.873Z,101450.64
2018-09-24T14:44:22.432Z,101465.58
2018-09-24T14:46:56.252Z,101447.72
2018-09-24T14:49:30.411Z,101455.16
2018-09-24T14:52:04.143Z,101458.09
2018-09-24T14:54:37.923Z,101459.16
2018-09-24T14:57:12.386Z,101460.75
2018-09-24T14:59:46.344Z,101445.80
2018-09-24T15:02:20.254Z,101455.13
2018-09-24T15:04:54.185Z,101462.80
2018-09-24T15:07:28.102Z,101472.11
2018-09-24T15:10:01.954Z,101465.97
2018-09-24T15:12:36.100Z,101470.71
2018-09-24T15:15:10.006Z,101470.67
2018-09-24T15:17:43.784Z,101476.53
2018-09-24T15:20:17.665Z,101469.84
2018-09-24T15:22:51.449Z,101482.61
2018-09-24T15:25:25.279Z,101479.38
2018-09-24T15:28:00.057Z,101489.46
2018-09-24T15:30:34.100Z,101480.39
2018-09-24T15:33:07.901Z,101490.25
2018-09-24T15:35:41.932Z,101491.04
2018-09-24T15:38:15.756Z,101479.83
2018-09-24T15:40:49.621Z,101483.25
2018-09-24T15:43:23.756Z,101480.89
2018-09-24T15:46:05.063Z,101484.91
2018-09-24T15:48:38.844Z,101476.69
2018-09-24T15:51:12.651Z,101474.03
2018-09-24T15:53:50.378Z,101474.83
2018-09-24T15:56:24.400Z,101472.44
2018-09-24T15:58:58.241Z,101484.16
2018-09-24T16:01:32.072Z,101478.07
2018-09-24T16:04:08.791Z,101477.30
2018-09-24T16:06:42.652Z,101481.31
2018-09-24T16:09:16.412Z,101479.16
2018-09-24T16:11:50.209Z,101487.95
2018-09-24T16:14:25.319Z,101482.32
2018-09-24T16:16:59.513Z,101486.59
2018-09-24T16:19:33.392Z,101480.97
2018-09-24T16:22:07.336Z,101475.62
2018-09-24T16:24:41.165Z,101487.84
2018-09-24T16:27:15.262Z,101484.86
2018-09-24T16:29:49.153Z,101472.85
2018-09-24T16:32:23.214Z,101477.62
2018-09-24T16:34:57.024Z,101482.10
2018-09-24T16:37:30.819Z,101484.45
2018-09-24T16:40:04.816Z,101482.05
2018-09-24T16:42:38.576Z,101483.05
2018-09-24T16:45:12.220Z,101491.79
2018-09-24T16:47:45.920Z,101495.52
2018-09-24T16:50:19.769Z,101498.46
2018-09-24T16:52:53.527Z,101499.49
2018-09-24T16:55:27.544Z,101496.00
2018-09-24T16:58:01.251Z,101503.12
2018-09-24T17:00:35.034Z,101506.25
2018-09-24T17:03:08.763Z,101499.06
2018-09-24T17:05:42.715Z,101501.44
2018-09-24T17:08:16.624Z,101508.55
2018-09-24T17:10:50.543Z,101501.34
2018-09-24T17:13:24.228Z,101504.83
2018-09-24T17:15:58.292Z,101506.56
2018-09-24T17:18:32.187Z,101511.12
2018-09-24T17:21:06.066Z,101515.39
2018-09-24T17:23:39.980Z,101515.67
2018-09-24T17:26:13.886Z,101516.72
2018-09-24T17:28:47.792Z,101514.02
2018-09-24T17:31:21.424Z,101528.36
2018-09-24T17:33:55.344Z,101524.93
2018-09-24T17:36:29.584Z,101530.48
2018-09-24T17:39:03.577Z,101538.23
2018-09-24T17:41:37.522Z,101542.19
2018-09-24T17:44:11.843Z,101544.28
2018-09-24T17:46:45.850Z,101544.83
2018-09-24T17:49:19.848Z,101538.45
2018-09-24T17:51:53.896Z,101551.75
2018-09-24T17:54:27.742Z,101558.59
2018-09-24T17:57:01.687Z,101558.57
2018-09-24T17:59:35.328Z,101558.77
2018-09-24T18:02:09.085Z,101567.09
2018-09-24T18:04:43.118Z,101574.78
2018-09-24T18:07:16.901Z,101577.66
2018-09-24T18:09:51.163Z,101577.09
2018-09-24T18:15:10.810Z,101585.10
2018-09-24T18:17:44.542Z,101588.61
2018-09-24T18:20:18.424Z,101585.64
2018-09-24T18:22:52.818Z,101594.19
2018-09-24T18:25:26.676Z,101589.41
2018-09-24T18:28:00.453Z,101596.90
2018-09-24T18:30:34.410Z,101589.69
2018-09-24T18:33:08.338Z,101593.93
2018-09-24T18:35:42.240Z,101600.83
2018-09-24T18:38:16.802Z,101606.41
2018-09-24T18:40:50.844Z,101612.23
2018-09-24T18:43:24.499Z,101613.05
2018-09-24T18:46:03.368Z,101614.09
2018-09-24T18:48:37.620Z,101607.45
2018-09-24T18:51:11.722Z,101611.16
2018-09-24T18:53:45.678Z,101611.53
2018-09-24T18:56:19.625Z,101620.59
2018-09-24T18:58:53.378Z,101629.31
2018-09-24T19:01:27.438Z,101615.68
2018-09-24T19:04:01.162Z,101632.67
2018-09-24T19:06:34.910Z,101633.78
2018-09-24T19:09:08.758Z,101633.23
2018-09-24T19:11:42.749Z,101639.59
2018-09-24T19:14:16.627Z,101647.50
2018-09-24T19:16:50.281Z,101652.56
2018-09-24T19:19:24.291Z,101649.88
2018-09-24T19:21:58.539Z,101646.92
2018-09-24T19:24:32.258Z,101665.31
2018-09-24T19:27:06.234Z,101663.98
2018-09-24T19:29:39.892Z,101667.40
2018-09-24T19:32:13.628Z,101671.09
2018-09-24T19:34:47.956Z,101674.47
2018-09-24T19:37:22.306Z,101677.92
2018-09-24T19:39:56.160Z,101689.34
2018-09-24T19:42:30.605Z,101689.09
2018-09-24T19:45:04.714Z,101699.96
2018-09-24T19:47:38.578Z,101708.41
2018-09-24T19:50:12.545Z,101707.03
2018-09-24T19:52:46.293Z,101710.77
2018-09-24T19:55:20.158Z,101709.66
2018-09-24T19:57:53.844Z,101712.81
2018-09-24T20:00:27.639Z,101718.88
2018-09-24T20:03:01.887Z,101715.96
2018-09-24T20:05:40.610Z,101720.70
2018-09-24T20:08:14.790Z,101721.19
2018-09-24T20:10:48.699Z,101722.98
2018-09-24T20:13:22.435Z,101722.91
2018-09-24T20:15:57.216Z,101727.70
2018-09-24T20:18:30.933Z,101737.17
2018-09-24T20:21:04.773Z,101737.92
2018-09-24T20:23:39.236Z,101737.20
2018-09-24T20:26:31.471Z,101739.41
2018-09-24T20:29:05.756Z,101739.56
2018-09-24T20:31:39.587Z,101739.47
2018-09-24T20:34:13.477Z,101740.80
2018-09-24T20:37:04.662Z,101746.02
2018-09-24T20:39:38.461Z,101741.95
2018-09-24T20:42:12.468Z,101754.84
2018-09-24T20:44:46.816Z,101752.88
2018-09-24T20:47:20.616Z,101758.48
2018-09-24T20:49:54.862Z,101761.08
2018-09-24T20:52:28.572Z,101759.52
2018-09-24T20:55:02.629Z,101759.52
2018-09-24T20:57:36.663Z,101758.23
2018-09-24T21:00:10.780Z,101762.12
2018-09-24T21:02:44.559Z,101763.19
2018-09-24T21:05:18.380Z,101764.52
2018-09-24T21:07:52.374Z,101765.21
2018-09-24T21:10:26.510Z,101774.20
2018-09-24T21:13:00.387Z,101770.47
2018-09-24T21:15:39.178Z,101779.92
2018-09-24T21:18:12.948Z,101784.48
2018-09-24T21:20:46.724Z,101786.14
2018-09-24T21:23:20.451Z,101782.89
2018-09-24T21:25:55.000Z,101798.39
2018-09-24T21:28:28.925Z,101803.98
2018-09-24T21:31:02.631Z,101810.88
2018-09-24T21:33:36.313Z,101806.16
2018-09-24T21:36:10.346Z,101812.80
2018-09-24T21:38:44.019Z,101813.53
2018-09-24T21:41:17.992Z,101806.06
2018-09-24T21:43:51.885Z,101809.19
2018-09-24T21:46:25.835Z,101811.16
2018-09-24T21:48:59.532Z,101810.06
2018-09-24T21:51:33.338Z,101815.88
2018-09-24T21:54:07.400Z,101821.36
2018-09-24T21:56:54.806Z,101820.04
2018-09-24T21:59:28.503Z,101822.69
2018-09-24T22:02:02.119Z,101832.16
2018-09-24T22:04:35.908Z,101834.14
2018-09-24T22:07:10.224Z,101840.59
2018-09-24T22:09:43.923Z,101839.45
2018-09-24T22:12:17.841Z,101847.22
2018-09-24T22:14:51.613Z,101857.24
2018-09-24T22:17:25.575Z,101852.82
2018-09-24T22:20:00.652Z,101861.86
2018-09-24T22:22:34.493Z,101864.16
2018-09-24T22:25:08.306Z,101860.37
2018-09-24T22:27:42.217Z,101864.34
2018-09-24T22:30:15.811Z,101873.09
2018-09-24T22:32:49.619Z,101869.89
2018-09-24T22:35:23.723Z,101874.55
2018-09-24T22:37:57.466Z,101875.88
2018-09-24T22:40:31.545Z,101876.49
2018-09-24T22:43:05.301Z,101875.22
2018-09-24T22:45:39.025Z,101875.88
2018-09-24T22:48:12.631Z,101886.98
2018-09-24T22:50:46.613Z,101886.11
2018-09-24T22:53:20.630Z,101884.42
2018-09-24T22:55:54.325Z,101887.43
2018-09-24T22:58:28.746Z,101892.67
2018-09-24T23:01:03.253Z,101892.78
2018-09-24T23:03:37.379Z,101895.63
2018-09-24T23:06:13.475Z,101899.84
2018-09-24T23:08:47.191Z,101889.58
2018-09-24T23:11:21.007Z,101891.36
2018-09-24T23:13:55.415Z,101895.27
2018-09-24T23:16:29.141Z,101889.88
2018-09-24T23:19:02.987Z,101900.41
2018-09-24T23:21:36.819Z,101902.33
2018-09-24T23:24:10.730Z,101897.86
2018-09-24T23:26:44.861Z,101913.29
2018-09-24T23:29:18.875Z,101916.53
2018-09-24T23:31:52.799Z,101919.05
2018-09-24T23:34:28.285Z,101916.66
2018-09-24T23:37:02.044Z,101927.00
2018-09-24T23:39:35.683Z,101925.14
2018-09-24T23:42:10.867Z,101929.91
2018-09-24T23:44:45.635Z,101929.48
2018-09-24T23:47:20.074Z,101932.49
2018-09-24T23:49:53.877Z,101932.59
2018-09-24T23:52:28.019Z,101939.84
2018-09-24T23:55:01.787Z,101943.05
2018-09-24T23:57:36.511Z,101943.41
